sensor_id;sensor_type;location;lat;lon;timestamp;P1;durP1;ratioP1;P2;durP2;ratioP2
64885;SDS011;51514;52.206;5.114;2022-10-30T00:00:47;21.88;;;11.00;;
64885;SDS011;51514;52.206;5.114;2022-10-30T00:03:13;26.58;;;10.73;;
64885;SDS011;51514;52.206;5.114;2022-10-30T00:05:44;20.73;;;10.57;;
64885;SDS011;51514;52.206;5.114;2022-10-30T00:08:11;21.88;;;11.32;;
64885;SDS011;51514;52.206;5.114;2022-10-30T00:10:38;22.15;;;11.38;;
64885;SDS011;51514;52.206;5.114;2022-10-30T00:13:06;18.95;;;10.60;;
64885;SDS011;51514;52.206;5.114;2022-10-30T00:15:32;21.05;;;11.73;;
64885;SDS011;51514;52.206;5.114;2022-10-30T00:17:58;22.35;;;12.27;;
64885;SDS011;51514;52.206;5.114;2022-10-30T00:20:23;22.98;;;12.00;;
64885;SDS011;51514;52.206;5.114;2022-10-30T00:22:48;22.42;;;11.10;;
64885;SDS011;51514;52.206;5.114;2022-10-30T00:25:14;16.98;;;9.75;;
64885;SDS011;51514;52.206;5.114;2022-10-30T00:27:39;20.17;;;10.27;;
64885;SDS011;51514;52.206;5.114;2022-10-30T00:30:05;19.95;;;10.25;;
64885;SDS011;51514;52.206;5.114;2022-10-30T00:32:30;18.02;;;10.13;;
64885;SDS011;51514;52.206;5.114;2022-10-30T00:34:56;26.25;;;9.82;;
64885;SDS011;51514;52.206;5.114;2022-10-30T00:37:21;17.38;;;9.35;;
64885;SDS011;51514;52.206;5.114;2022-10-30T00:39:46;18.60;;;9.18;;
64885;SDS011;51514;52.206;5.114;2022-10-30T00:42:12;21.02;;;10.73;;
64885;SDS011;51514;52.206;5.114;2022-10-30T00:44:49;22.67;;;10.98;;
64885;SDS011;51514;52.206;5.114;2022-10-30T00:50:11;19.92;;;10.07;;
64885;SDS011;51514;52.206;5.114;2022-10-30T00:52:42;21.20;;;9.98;;
64885;SDS011;51514;52.206;5.114;2022-10-30T00:55:22;16.92;;;8.93;;
64885;SDS011;51514;52.206;5.114;2022-10-30T00:57:56;18.48;;;9.85;;
64885;SDS011;51514;52.206;5.114;2022-10-30T01:00:23;15.65;;;8.95;;
64885;SDS011;51514;52.206;5.114;2022-10-30T01:02:51;24.33;;;11.07;;
64885;SDS011;51514;52.206;5.114;2022-10-30T01:05:17;16.77;;;10.23;;
64885;SDS011;51514;52.206;5.114;2022-10-30T01:07:45;24.08;;;10.57;;
64885;SDS011;51514;52.206;5.114;2022-10-30T01:10:11;22.23;;;10.95;;
64885;SDS011;51514;52.206;5.114;2022-10-30T01:12:37;15.35;;;9.13;;
64885;SDS011;51514;52.206;5.114;2022-10-30T01:15:03;15.48;;;8.60;;
64885;SDS011;51514;52.206;5.114;2022-10-30T01:17:34;21.17;;;10.40;;
64885;SDS011;51514;52.206;5.114;2022-10-30T01:20:25;17.30;;;9.02;;
64885;SDS011;51514;52.206;5.114;2022-10-30T01:35:36;22.00;;;9.57;;
64885;SDS011;51514;52.206;5.114;2022-10-30T01:38:14;19.02;;;8.80;;
64885;SDS011;51514;52.206;5.114;2022-10-30T01:40:45;26.15;;;11.38;;
64885;SDS011;51514;52.206;5.114;2022-10-30T01:43:10;19.33;;;8.77;;
64885;SDS011;51514;52.206;5.114;2022-10-30T01:56:54;18.52;;;10.27;;
64885;SDS011;51514;52.206;5.114;2022-10-30T01:59:30;21.52;;;9.77;;
64885;SDS011;51514;52.206;5.114;2022-10-30T02:02:01;22.08;;;9.25;;
64885;SDS011;51514;52.206;5.114;2022-10-30T02:04:26;19.98;;;9.48;;
64885;SDS011;51514;52.206;5.114;2022-10-30T02:06:53;23.75;;;9.82;;
64885;SDS011;51514;52.206;5.114;2022-10-30T02:09:18;16.13;;;9.85;;
64885;SDS011;51514;52.206;5.114;2022-10-30T02:11:44;22.98;;;11.68;;
64885;SDS011;51514;52.206;5.114;2022-10-30T02:14:12;19.80;;;9.50;;
64885;SDS011;51514;52.206;5.114;2022-10-30T02:16:43;20.05;;;10.10;;
64885;SDS011;51514;52.206;5.114;2022-10-30T02:19:13;18.95;;;10.05;;
64885;SDS011;51514;52.206;5.114;2022-10-30T02:21:39;24.20;;;10.50;;
64885;SDS011;51514;52.206;5.114;2022-10-30T02:24:04;16.17;;;9.05;;
64885;SDS011;51514;52.206;5.114;2022-10-30T02:26:30;16.52;;;9.98;;
64885;SDS011;51514;52.206;5.114;2022-10-30T02:28:55;17.65;;;9.35;;
64885;SDS011;51514;52.206;5.114;2022-10-30T02:31:21;15.65;;;9.75;;
64885;SDS011;51514;52.206;5.114;2022-10-30T02:33:47;17.42;;;10.50;;
64885;SDS011;51514;52.206;5.114;2022-10-30T02:36:13;15.60;;;10.15;;
64885;SDS011;51514;52.206;5.114;2022-10-30T02:38:41;14.77;;;8.57;;
64885;SDS011;51514;52.206;5.114;2022-10-30T02:41:10;20.87;;;9.70;;
64885;SDS011;51514;52.206;5.114;2022-10-30T02:43:35;21.17;;;9.90;;
64885;SDS011;51514;52.206;5.114;2022-10-30T02:46:01;17.77;;;10.18;;
64885;SDS011;51514;52.206;5.114;2022-10-30T02:48:28;18.58;;;10.38;;
64885;SDS011;51514;52.206;5.114;2022-10-30T02:50:57;16.38;;;9.55;;
64885;SDS011;51514;52.206;5.114;2022-10-30T02:53:24;21.25;;;9.32;;
64885;SDS011;51514;52.206;5.114;2022-10-30T02:55:49;17.67;;;9.52;;
64885;SDS011;51514;52.206;5.114;2022-10-30T02:58:14;16.55;;;9.63;;
64885;SDS011;51514;52.206;5.114;2022-10-30T03:00:39;16.48;;;9.95;;
64885;SDS011;51514;52.206;5.114;2022-10-30T03:03:05;17.77;;;10.32;;
64885;SDS011;51514;52.206;5.114;2022-10-30T03:05:30;20.88;;;10.65;;
64885;SDS011;51514;52.206;5.114;2022-10-30T03:07:55;21.00;;;10.18;;
64885;SDS011;51514;52.206;5.114;2022-10-30T03:10:21;17.65;;;9.60;;
64885;SDS011;51514;52.206;5.114;2022-10-30T03:12:46;18.83;;;10.27;;
64885;SDS011;51514;52.206;5.114;2022-10-30T03:15:12;20.65;;;11.05;;
64885;SDS011;51514;52.206;5.114;2022-10-30T03:17:37;17.08;;;10.15;;
64885;SDS011;51514;52.206;5.114;2022-10-30T03:20:03;20.02;;;10.95;;
64885;SDS011;51514;52.206;5.114;2022-10-30T03:22:30;14.57;;;9.93;;
64885;SDS011;51514;52.206;5.114;2022-10-30T03:24:55;19.98;;;10.13;;
64885;SDS011;51514;52.206;5.114;2022-10-30T03:27:21;18.00;;;10.02;;
64885;SDS011;51514;52.206;5.114;2022-10-30T03:29:46;17.80;;;10.48;;
64885;SDS011;51514;52.206;5.114;2022-10-30T03:32:11;21.85;;;10.32;;
64885;SDS011;51514;52.206;5.114;2022-10-30T03:34:37;16.80;;;9.65;;
64885;SDS011;51514;52.206;5.114;2022-10-30T03:37:02;19.10;;;9.80;;
64885;SDS011;51514;52.206;5.114;2022-10-30T03:39:28;19.38;;;10.18;;
64885;SDS011;51514;52.206;5.114;2022-10-30T03:41:54;18.23;;;10.32;;
64885;SDS011;51514;52.206;5.114;2022-10-30T03:44:22;18.58;;;10.07;;
64885;SDS011;51514;52.206;5.114;2022-10-30T03:46:47;18.67;;;9.55;;
64885;SDS011;51514;52.206;5.114;2022-10-30T03:49:12;20.02;;;8.95;;
64885;SDS011;51514;52.206;5.114;2022-10-30T03:51:38;18.45;;;9.48;;
64885;SDS011;51514;52.206;5.114;2022-10-30T03:54:03;16.00;;;9.85;;
64885;SDS011;51514;52.206;5.114;2022-10-30T03:56:28;16.55;;;9.02;;
64885;SDS011;51514;52.206;5.114;2022-10-30T03:58:54;22.98;;;10.38;;
64885;SDS011;51514;52.206;5.114;2022-10-30T04:01:19;20.83;;;10.27;;
64885;SDS011;51514;52.206;5.114;2022-10-30T04:03:45;19.45;;;10.82;;
64885;SDS011;51514;52.206;5.114;2022-10-30T04:06:10;20.88;;;11.48;;
64885;SDS011;51514;52.206;5.114;2022-10-30T04:08:36;26.00;;;11.07;;
64885;SDS011;51514;52.206;5.114;2022-10-30T04:11:01;21.77;;;9.95;;
64885;SDS011;51514;52.206;5.114;2022-10-30T04:13:26;19.48;;;10.30;;
64885;SDS011;51514;52.206;5.114;2022-10-30T04:15:52;17.15;;;11.38;;
64885;SDS011;51514;52.206;5.114;2022-10-30T04:18:17;21.83;;;11.57;;
64885;SDS011;51514;52.206;5.114;2022-10-30T04:20:43;20.70;;;11.00;;
64885;SDS011;51514;52.206;5.114;2022-10-30T04:23:11;20.25;;;10.98;;
64885;SDS011;51514;52.206;5.114;2022-10-30T04:28:04;21.67;;;10.93;;
64885;SDS011;51514;52.206;5.114;2022-10-30T04:30:29;17.05;;;11.23;;
64885;SDS011;51514;52.206;5.114;2022-10-30T04:32:59;16.88;;;10.73;;
64885;SDS011;51514;52.206;5.114;2022-10-30T04:35:26;20.08;;;11.48;;
64885;SDS011;51514;52.206;5.114;2022-10-30T04:37:57;18.60;;;11.15;;
64885;SDS011;51514;52.206;5.114;2022-10-30T04:40:24;16.63;;;10.60;;
64885;SDS011;51514;52.206;5.114;2022-10-30T04:42:51;14.23;;;8.68;;
64885;SDS011;51514;52.206;5.114;2022-10-30T04:45:17;15.48;;;9.10;;
64885;SDS011;51514;52.206;5.114;2022-10-30T04:47:43;18.08;;;10.07;;
64885;SDS011;51514;52.206;5.114;2022-10-30T04:50:09;19.00;;;11.00;;
64885;SDS011;51514;52.206;5.114;2022-10-30T04:52:34;21.10;;;10.32;;
64885;SDS011;51514;52.206;5.114;2022-10-30T04:55:00;18.98;;;10.90;;
64885;SDS011;51514;52.206;5.114;2022-10-30T04:57:26;24.70;;;11.32;;
64885;SDS011;51514;52.206;5.114;2022-10-30T04:59:51;23.35;;;10.18;;
64885;SDS011;51514;52.206;5.114;2022-10-30T05:02:16;28.20;;;11.68;;
64885;SDS011;51514;52.206;5.114;2022-10-30T05:04:44;23.80;;;10.75;;
64885;SDS011;51514;52.206;5.114;2022-10-30T05:07:10;20.27;;;11.85;;
64885;SDS011;51514;52.206;5.114;2022-10-30T05:09:37;21.13;;;11.65;;
64885;SDS011;51514;52.206;5.114;2022-10-30T05:12:03;22.38;;;11.25;;
64885;SDS011;51514;52.206;5.114;2022-10-30T05:14:29;27.40;;;10.70;;
64885;SDS011;51514;52.206;5.114;2022-10-30T05:16:55;18.30;;;10.95;;
64885;SDS011;51514;52.206;5.114;2022-10-30T05:19:23;21.48;;;11.90;;
64885;SDS011;51514;52.206;5.114;2022-10-30T05:21:49;15.57;;;10.50;;
64885;SDS011;51514;52.206;5.114;2022-10-30T05:24:15;20.77;;;11.57;;
64885;SDS011;51514;52.206;5.114;2022-10-30T05:26:41;22.17;;;11.80;;
64885;SDS011;51514;52.206;5.114;2022-10-30T05:29:06;25.02;;;12.55;;
64885;SDS011;51514;52.206;5.114;2022-10-30T05:31:31;22.92;;;13.07;;
64885;SDS011;51514;52.206;5.114;2022-10-30T05:33:57;17.85;;;12.02;;
64885;SDS011;51514;52.206;5.114;2022-10-30T05:36:22;22.92;;;11.85;;
64885;SDS011;51514;52.206;5.114;2022-10-30T05:38:47;30.27;;;13.48;;
64885;SDS011;51514;52.206;5.114;2022-10-30T05:41:13;22.48;;;13.13;;
64885;SDS011;51514;52.206;5.114;2022-10-30T05:43:38;22.95;;;13.13;;
64885;SDS011;51514;52.206;5.114;2022-10-30T05:46:03;21.27;;;12.68;;
64885;SDS011;51514;52.206;5.114;2022-10-30T05:48:29;23.55;;;13.52;;
64885;SDS011;51514;52.206;5.114;2022-10-30T05:50:54;24.98;;;13.80;;
64885;SDS011;51514;52.206;5.114;2022-10-30T05:53:23;22.27;;;14.13;;
64885;SDS011;51514;52.206;5.114;2022-10-30T05:55:49;25.80;;;14.02;;
64885;SDS011;51514;52.206;5.114;2022-10-30T05:58:14;26.05;;;14.50;;
64885;SDS011;51514;52.206;5.114;2022-10-30T06:00:40;27.83;;;13.80;;
64885;SDS011;51514;52.206;5.114;2022-10-30T06:03:08;20.88;;;12.77;;
64885;SDS011;51514;52.206;5.114;2022-10-30T06:05:35;25.45;;;13.18;;
64885;SDS011;51514;52.206;5.114;2022-10-30T06:08:02;25.23;;;13.57;;
64885;SDS011;51514;52.206;5.114;2022-10-30T06:10:29;31.08;;;14.02;;
64885;SDS011;51514;52.206;5.114;2022-10-30T06:12:55;20.10;;;13.40;;
64885;SDS011;51514;52.206;5.114;2022-10-30T06:15:22;23.17;;;11.85;;
64885;SDS011;51514;52.206;5.114;2022-10-30T06:17:47;26.83;;;13.27;;
64885;SDS011;51514;52.206;5.114;2022-10-30T06:20:13;24.45;;;12.77;;
64885;SDS011;51514;52.206;5.114;2022-10-30T06:22:40;23.42;;;12.85;;
64885;SDS011;51514;52.206;5.114;2022-10-30T06:25:05;21.73;;;13.77;;
64885;SDS011;51514;52.206;5.114;2022-10-30T06:27:34;27.23;;;12.63;;
64885;SDS011;51514;52.206;5.114;2022-10-30T06:29:59;24.55;;;13.05;;
64885;SDS011;51514;52.206;5.114;2022-10-30T06:32:25;25.05;;;13.20;;
64885;SDS011;51514;52.206;5.114;2022-10-30T06:34:50;19.15;;;12.10;;
64885;SDS011;51514;52.206;5.114;2022-10-30T06:37:16;23.52;;;12.55;;
64885;SDS011;51514;52.206;5.114;2022-10-30T06:39:41;23.17;;;12.95;;
64885;SDS011;51514;52.206;5.114;2022-10-30T06:42:09;23.35;;;12.50;;
64885;SDS011;51514;52.206;5.114;2022-10-30T06:44:34;24.73;;;13.75;;
64885;SDS011;51514;52.206;5.114;2022-10-30T06:47:00;25.00;;;13.77;;
64885;SDS011;51514;52.206;5.114;2022-10-30T06:49:25;22.75;;;13.75;;
64885;SDS011;51514;52.206;5.114;2022-10-30T06:51:50;20.30;;;13.50;;
64885;SDS011;51514;52.206;5.114;2022-10-30T06:54:16;22.98;;;13.13;;
64885;SDS011;51514;52.206;5.114;2022-10-30T06:56:41;19.50;;;13.30;;
64885;SDS011;51514;52.206;5.114;2022-10-30T06:59:06;23.77;;;12.73;;
64885;SDS011;51514;52.206;5.114;2022-10-30T07:01:33;20.35;;;13.38;;
64885;SDS011;51514;52.206;5.114;2022-10-30T07:03:58;24.48;;;13.82;;
64885;SDS011;51514;52.206;5.114;2022-10-30T07:06:24;22.70;;;14.85;;
64885;SDS011;51514;52.206;5.114;2022-10-30T07:08:49;27.05;;;14.77;;
64885;SDS011;51514;52.206;5.114;2022-10-30T07:11:14;23.73;;;14.00;;
64885;SDS011;51514;52.206;5.114;2022-10-30T07:13:40;21.35;;;14.25;;
64885;SDS011;51514;52.206;5.114;2022-10-30T07:16:05;21.65;;;13.95;;
64885;SDS011;51514;52.206;5.114;2022-10-30T07:18:30;21.67;;;13.30;;
64885;SDS011;51514;52.206;5.114;2022-10-30T07:20:56;24.38;;;14.75;;
64885;SDS011;51514;52.206;5.114;2022-10-30T07:23:21;21.95;;;14.25;;
64885;SDS011;51514;52.206;5.114;2022-10-30T07:25:46;21.13;;;13.85;;
64885;SDS011;51514;52.206;5.114;2022-10-30T07:28:12;23.63;;;14.52;;
64885;SDS011;51514;52.206;5.114;2022-10-30T07:30:37;29.48;;;15.90;;
64885;SDS011;51514;52.206;5.114;2022-10-30T07:33:04;24.17;;;14.80;;
64885;SDS011;51514;52.206;5.114;2022-10-30T07:35:31;27.13;;;14.55;;
64885;SDS011;51514;52.206;5.114;2022-10-30T07:38:02;24.92;;;15.55;;
64885;SDS011;51514;52.206;5.114;2022-10-30T07:40:31;22.77;;;13.95;;
64885;SDS011;51514;52.206;5.114;2022-10-30T07:42:58;25.45;;;15.80;;
64885;SDS011;51514;52.206;5.114;2022-10-30T07:45:25;22.15;;;14.57;;
64885;SDS011;51514;52.206;5.114;2022-10-30T07:47:51;26.02;;;16.10;;
64885;SDS011;51514;52.206;5.114;2022-10-30T07:50:16;28.13;;;15.82;;
64885;SDS011;51514;52.206;5.114;2022-10-30T07:52:42;27.55;;;16.63;;
64885;SDS011;51514;52.206;5.114;2022-10-30T07:55:07;23.63;;;16.45;;
64885;SDS011;51514;52.206;5.114;2022-10-30T07:57:34;25.17;;;15.95;;
64885;SDS011;51514;52.206;5.114;2022-10-30T08:00:01;26.33;;;16.08;;
64885;SDS011;51514;52.206;5.114;2022-10-30T08:02:31;28.42;;;15.98;;
64885;SDS011;51514;52.206;5.114;2022-10-30T08:04:56;26.27;;;15.63;;
64885;SDS011;51514;52.206;5.114;2022-10-30T08:07:22;22.75;;;15.35;;
64885;SDS011;51514;52.206;5.114;2022-10-30T08:09:47;24.90;;;16.77;;
64885;SDS011;51514;52.206;5.114;2022-10-30T08:12:13;31.58;;;15.52;;
64885;SDS011;51514;52.206;5.114;2022-10-30T08:14:39;24.90;;;17.02;;
64885;SDS011;51514;52.206;5.114;2022-10-30T08:17:04;25.60;;;16.35;;
64885;SDS011;51514;52.206;5.114;2022-10-30T08:19:31;33.15;;;16.05;;
64885;SDS011;51514;52.206;5.114;2022-10-30T08:21:57;26.77;;;16.73;;
64885;SDS011;51514;52.206;5.114;2022-10-30T08:24:22;23.15;;;15.75;;
64885;SDS011;51514;52.206;5.114;2022-10-30T08:26:50;27.15;;;17.02;;
64885;SDS011;51514;52.206;5.114;2022-10-30T08:29:16;27.75;;;16.90;;
64885;SDS011;51514;52.206;5.114;2022-10-30T08:31:41;26.27;;;15.40;;
64885;SDS011;51514;52.206;5.114;2022-10-30T08:34:07;25.23;;;17.60;;
64885;SDS011;51514;52.206;5.114;2022-10-30T08:36:33;27.65;;;17.10;;
64885;SDS011;51514;52.206;5.114;2022-10-30T08:38:58;24.25;;;15.82;;
64885;SDS011;51514;52.206;5.114;2022-10-30T08:41:24;28.45;;;16.27;;
64885;SDS011;51514;52.206;5.114;2022-10-30T08:43:49;27.50;;;16.20;;
64885;SDS011;51514;52.206;5.114;2022-10-30T08:46:14;27.95;;;15.77;;
64885;SDS011;51514;52.206;5.114;2022-10-30T08:48:40;26.98;;;15.75;;
64885;SDS011;51514;52.206;5.114;2022-10-30T08:51:05;30.55;;;16.00;;
64885;SDS011;51514;52.206;5.114;2022-10-30T08:53:31;24.50;;;15.27;;
64885;SDS011;51514;52.206;5.114;2022-10-30T08:55:56;31.58;;;17.08;;
64885;SDS011;51514;52.206;5.114;2022-10-30T08:58:21;26.90;;;16.70;;
64885;SDS011;51514;52.206;5.114;2022-10-30T09:00:49;25.20;;;15.70;;
64885;SDS011;51514;52.206;5.114;2022-10-30T09:03:14;26.63;;;15.35;;
64885;SDS011;51514;52.206;5.114;2022-10-30T09:05:40;23.95;;;16.08;;
64885;SDS011;51514;52.206;5.114;2022-10-30T09:08:05;20.90;;;15.05;;
64885;SDS011;51514;52.206;5.114;2022-10-30T09:10:30;32.72;;;17.13;;
64885;SDS011;51514;52.206;5.114;2022-10-30T09:12:59;26.80;;;16.38;;
64885;SDS011;51514;52.206;5.114;2022-10-30T09:15:26;26.15;;;17.75;;
64885;SDS011;51514;52.206;5.114;2022-10-30T09:17:59;26.40;;;16.48;;
64885;SDS011;51514;52.206;5.114;2022-10-30T09:20:26;27.67;;;16.42;;
64885;SDS011;51514;52.206;5.114;2022-10-30T09:22:52;28.58;;;15.70;;
64885;SDS011;51514;52.206;5.114;2022-10-30T09:25:18;25.70;;;15.55;;
64885;SDS011;51514;52.206;5.114;2022-10-30T09:27:43;24.73;;;16.02;;
64885;SDS011;51514;52.206;5.114;2022-10-30T09:30:09;28.23;;;15.73;;
64885;SDS011;51514;52.206;5.114;2022-10-30T09:32:35;27.13;;;15.98;;
64885;SDS011;51514;52.206;5.114;2022-10-30T09:35:00;28.25;;;15.93;;
64885;SDS011;51514;52.206;5.114;2022-10-30T09:37:26;29.23;;;15.57;;
64885;SDS011;51514;52.206;5.114;2022-10-30T09:39:51;32.15;;;15.48;;
64885;SDS011;51514;52.206;5.114;2022-10-30T10:01:14;26.75;;;13.32;;
64885;SDS011;51514;52.206;5.114;2022-10-30T10:06:39;25.83;;;13.43;;
64885;SDS011;51514;52.206;5.114;2022-10-30T10:09:22;23.55;;;14.20;;
64885;SDS011;51514;52.206;5.114;2022-10-30T10:11:52;28.90;;;13.25;;
64885;SDS011;51514;52.206;5.114;2022-10-30T10:14:21;25.38;;;12.93;;
64885;SDS011;51514;52.206;5.114;2022-10-30T10:16:53;21.05;;;13.48;;
64885;SDS011;51514;52.206;5.114;2022-10-30T10:25:02;22.58;;;11.77;;
64885;SDS011;51514;52.206;5.114;2022-10-30T10:30:21;22.08;;;12.30;;
64885;SDS011;51514;52.206;5.114;2022-10-30T10:32:58;21.35;;;11.57;;
64885;SDS011;51514;52.206;5.114;2022-10-30T10:38:22;24.17;;;11.85;;
64885;SDS011;51514;52.206;5.114;2022-10-30T10:40:53;24.92;;;12.02;;
64885;SDS011;51514;52.206;5.114;2022-10-30T10:43:30;26.60;;;13.00;;
64885;SDS011;51514;52.206;5.114;2022-10-30T10:48:46;21.42;;;11.70;;
64885;SDS011;51514;52.206;5.114;2022-10-30T10:51:27;22.45;;;12.30;;
64885;SDS011;51514;52.206;5.114;2022-10-30T10:53:58;24.77;;;11.45;;
64885;SDS011;51514;52.206;5.114;2022-10-30T10:56:29;21.65;;;12.55;;
64885;SDS011;51514;52.206;5.114;2022-10-30T10:59:05;21.23;;;11.05;;
64885;SDS011;51514;52.206;5.114;2022-10-30T11:01:43;22.23;;;11.48;;
64885;SDS011;51514;52.206;5.114;2022-10-30T11:04:17;19.48;;;10.52;;
64885;SDS011;51514;52.206;5.114;2022-10-30T11:06:51;19.63;;;11.43;;
64885;SDS011;51514;52.206;5.114;2022-10-30T11:09:21;21.83;;;11.57;;
64885;SDS011;51514;52.206;5.114;2022-10-30T11:11:48;22.30;;;11.50;;
64885;SDS011;51514;52.206;5.114;2022-10-30T11:14:21;19.55;;;11.70;;
64885;SDS011;51514;52.206;5.114;2022-10-30T11:16:58;18.05;;;10.50;;
64885;SDS011;51514;52.206;5.114;2022-10-30T11:19:35;19.52;;;10.98;;
64885;SDS011;51514;52.206;5.114;2022-10-30T11:22:00;22.25;;;11.60;;
64885;SDS011;51514;52.206;5.114;2022-10-30T11:24:29;25.80;;;11.77;;
64885;SDS011;51514;52.206;5.114;2022-10-30T11:26:58;19.58;;;10.07;;
64885;SDS011;51514;52.206;5.114;2022-10-30T11:29:50;20.23;;;10.10;;
64885;SDS011;51514;52.206;5.114;2022-10-30T11:32:19;15.60;;;9.63;;
64885;SDS011;51514;52.206;5.114;2022-10-30T11:34:52;21.08;;;10.88;;
64885;SDS011;51514;52.206;5.114;2022-10-30T11:37:28;23.35;;;10.65;;
64885;SDS011;51514;52.206;5.114;2022-10-30T11:40:17;23.00;;;11.02;;
64885;SDS011;51514;52.206;5.114;2022-10-30T11:43:07;19.73;;;10.02;;
64885;SDS011;51514;52.206;5.114;2022-10-30T11:45:39;25.00;;;10.60;;
64885;SDS011;51514;52.206;5.114;2022-10-30T11:48:13;23.80;;;10.43;;
64885;SDS011;51514;52.206;5.114;2022-10-30T11:50:47;18.27;;;9.85;;
64885;SDS011;51514;52.206;5.114;2022-10-30T11:53:24;20.77;;;10.93;;
64885;SDS011;51514;52.206;5.114;2022-10-30T11:55:55;23.80;;;11.45;;
64885;SDS011;51514;52.206;5.114;2022-10-30T12:00:48;18.42;;;9.43;;
64885;SDS011;51514;52.206;5.114;2022-10-30T12:03:42;20.55;;;10.30;;
64885;SDS011;51514;52.206;5.114;2022-10-30T12:06:08;30.70;;;10.77;;
64885;SDS011;51514;52.206;5.114;2022-10-30T12:09:02;19.08;;;10.18;;
64885;SDS011;51514;52.206;5.114;2022-10-30T12:11:35;19.77;;;10.25;;
64885;SDS011;51514;52.206;5.114;2022-10-30T12:14:02;17.65;;;10.43;;
64885;SDS011;51514;52.206;5.114;2022-10-30T12:16:28;20.65;;;10.35;;
64885;SDS011;51514;52.206;5.114;2022-10-30T12:21:24;20.40;;;11.27;;
64885;SDS011;51514;52.206;5.114;2022-10-30T12:23:52;24.50;;;12.25;;
64885;SDS011;51514;52.206;5.114;2022-10-30T12:26:21;18.98;;;10.48;;
64885;SDS011;51514;52.206;5.114;2022-10-30T12:28:52;25.38;;;10.75;;
64885;SDS011;51514;52.206;5.114;2022-10-30T12:31:24;22.80;;;11.02;;
64885;SDS011;51514;52.206;5.114;2022-10-30T12:34:04;21.25;;;11.02;;
64885;SDS011;51514;52.206;5.114;2022-10-30T12:37:16;23.05;;;11.20;;
64885;SDS011;51514;52.206;5.114;2022-10-30T12:39:52;16.70;;;11.32;;
64885;SDS011;51514;52.206;5.114;2022-10-30T12:42:22;21.95;;;12.30;;
64885;SDS011;51514;52.206;5.114;2022-10-30T12:47:32;25.80;;;10.82;;
64885;SDS011;51514;52.206;5.114;2022-10-30T12:50:02;21.58;;;11.45;;
64885;SDS011;51514;52.206;5.114;2022-10-30T12:52:45;24.33;;;10.60;;
64885;SDS011;51514;52.206;5.114;2022-10-30T13:00:44;20.63;;;11.02;;
64885;SDS011;51514;52.206;5.114;2022-10-30T13:05:58;19.77;;;11.65;;
64885;SDS011;51514;52.206;5.114;2022-10-30T13:08:39;22.45;;;11.95;;
64885;SDS011;51514;52.206;5.114;2022-10-30T13:14:16;21.90;;;12.02;;
64885;SDS011;51514;52.206;5.114;2022-10-30T13:16:46;20.20;;;11.50;;
64885;SDS011;51514;52.206;5.114;2022-10-30T13:19:14;19.38;;;10.90;;
64885;SDS011;51514;52.206;5.114;2022-10-30T13:29:42;20.48;;;11.43;;
64885;SDS011;51514;52.206;5.114;2022-10-30T13:34:53;23.25;;;11.38;;
64885;SDS011;51514;52.206;5.114;2022-10-30T13:38:01;20.33;;;11.00;;
64885;SDS011;51514;52.206;5.114;2022-10-30T13:40:35;22.55;;;11.07;;
64885;SDS011;51514;52.206;5.114;2022-10-30T13:54:06;15.80;;;8.65;;
64885;SDS011;51514;52.206;5.114;2022-10-30T13:56:37;19.63;;;10.25;;
64885;SDS011;51514;52.206;5.114;2022-10-30T14:01:42;20.63;;;10.20;;
64885;SDS011;51514;52.206;5.114;2022-10-30T14:04:12;20.48;;;9.98;;
64885;SDS011;51514;52.206;5.114;2022-10-30T14:11:45;17.90;;;9.13;;
64885;SDS011;51514;52.206;5.114;2022-10-30T14:17:21;18.55;;;9.88;;
64885;SDS011;51514;52.206;5.114;2022-10-30T14:20:26;16.58;;;10.00;;
64885;SDS011;51514;52.206;5.114;2022-10-30T14:22:29;18.73;;;11.07;;
64885;SDS011;51514;52.206;5.114;2022-10-30T14:24:55;21.13;;;10.88;;
64885;SDS011;51514;52.206;5.114;2022-10-30T14:27:29;21.85;;;11.30;;
64885;SDS011;51514;52.206;5.114;2022-10-30T14:29:56;24.60;;;11.77;;
64885;SDS011;51514;52.206;5.114;2022-10-30T14:39:49;21.48;;;11.07;;
64885;SDS011;51514;52.206;5.114;2022-10-30T14:50:09;18.10;;;9.10;;
64885;SDS011;51514;52.206;5.114;2022-10-30T14:58:16;20.35;;;9.80;;
64885;SDS011;51514;52.206;5.114;2022-10-30T15:00:47;25.45;;;9.70;;
64885;SDS011;51514;52.206;5.114;2022-10-30T15:08:26;23.70;;;10.52;;
64885;SDS011;51514;52.206;5.114;2022-10-30T15:13:47;18.42;;;9.98;;
64885;SDS011;51514;52.206;5.114;2022-10-30T15:16:16;19.77;;;10.20;;
64885;SDS011;51514;52.206;5.114;2022-10-30T15:18:51;27.15;;;10.50;;
64885;SDS011;51514;52.206;5.114;2022-10-30T15:21:23;22.83;;;9.75;;
64885;SDS011;51514;52.206;5.114;2022-10-30T15:23:53;16.42;;;9.60;;
64885;SDS011;51514;52.206;5.114;2022-10-30T15:26:21;20.02;;;10.25;;
64885;SDS011;51514;52.206;5.114;2022-10-30T15:28:50;20.15;;;10.93;;
64885;SDS011;51514;52.206;5.114;2022-10-30T15:31:24;20.23;;;10.68;;
64885;SDS011;51514;52.206;5.114;2022-10-30T15:33:51;19.77;;;11.75;;
64885;SDS011;51514;52.206;5.114;2022-10-30T15:39:27;27.85;;;12.05;;
64885;SDS011;51514;52.206;5.114;2022-10-30T15:46:51;27.70;;;11.87;;
64885;SDS011;51514;52.206;5.114;2022-10-30T15:49:20;21.63;;;11.05;;
64885;SDS011;51514;52.206;5.114;2022-10-30T15:51:52;19.02;;;10.32;;
64885;SDS011;51514;52.206;5.114;2022-10-30T15:54:18;14.98;;;9.95;;
64885;SDS011;51514;52.206;5.114;2022-10-30T15:56:45;16.45;;;9.45;;
64885;SDS011;51514;52.206;5.114;2022-10-30T15:59:24;21.27;;;9.05;;
64885;SDS011;51514;52.206;5.114;2022-10-30T16:01:52;17.83;;;8.20;;
64885;SDS011;51514;52.206;5.114;2022-10-30T16:04:30;21.05;;;8.35;;
64885;SDS011;51514;52.206;5.114;2022-10-30T16:06:57;20.70;;;8.18;;
64885;SDS011;51514;52.206;5.114;2022-10-30T16:09:25;15.32;;;8.02;;
64885;SDS011;51514;52.206;5.114;2022-10-30T16:11:52;22.65;;;8.65;;
64885;SDS011;51514;52.206;5.114;2022-10-30T16:14:26;14.70;;;6.93;;
64885;SDS011;51514;52.206;5.114;2022-10-30T16:16:53;17.00;;;7.65;;
64885;SDS011;51514;52.206;5.114;2022-10-30T16:19:23;18.33;;;7.20;;
64885;SDS011;51514;52.206;5.114;2022-10-30T16:21:51;17.42;;;6.88;;
64885;SDS011;51514;52.206;5.114;2022-10-30T16:24:20;17.67;;;7.47;;
64885;SDS011;51514;52.206;5.114;2022-10-30T16:27:00;16.00;;;7.20;;
64885;SDS011;51514;52.206;5.114;2022-10-30T16:29:43;16.65;;;7.57;;
64885;SDS011;51514;52.206;5.114;2022-10-30T16:32:11;11.77;;;6.05;;
64885;SDS011;51514;52.206;5.114;2022-10-30T16:37:11;13.55;;;6.47;;
64885;SDS011;51514;52.206;5.114;2022-10-30T16:39:43;14.05;;;6.78;;
64885;SDS011;51514;52.206;5.114;2022-10-30T16:42:17;17.73;;;6.45;;
64885;SDS011;51514;52.206;5.114;2022-10-30T16:44:47;15.75;;;7.18;;
64885;SDS011;51514;52.206;5.114;2022-10-30T16:47:21;18.75;;;6.78;;
64885;SDS011;51514;52.206;5.114;2022-10-30T16:49:52;12.52;;;7.45;;
64885;SDS011;51514;52.206;5.114;2022-10-30T16:52:21;14.68;;;8.02;;
64885;SDS011;51514;52.206;5.114;2022-10-30T16:54:52;20.52;;;7.10;;
64885;SDS011;51514;52.206;5.114;2022-10-30T16:57:25;19.08;;;7.47;;
64885;SDS011;51514;52.206;5.114;2022-10-30T16:59:53;14.88;;;7.40;;
64885;SDS011;51514;52.206;5.114;2022-10-30T17:02:24;16.77;;;7.30;;
64885;SDS011;51514;52.206;5.114;2022-10-30T17:04:52;14.55;;;6.80;;
64885;SDS011;51514;52.206;5.114;2022-10-30T17:07:23;16.67;;;7.38;;
64885;SDS011;51514;52.206;5.114;2022-10-30T17:09:50;10.70;;;6.32;;